Aérodrome :
LOGIN :

S'inscrire | Disclaimer

   EN    FR    IT 

 










Légende :    VFR   VFR Marginal   IFR   IFR Intensif   IFR Très Intensif
Visi : 
Plafond : 
>= 8 km
>= 3000ft
5 à 8 km
1000 à 3000 ft
1500m à 5 km
500 à 1000 ft
800 à 1500m
200 à 500 ft
< 800m
< 200 ft
Symboles :   Orages  Brouillard  Fortes neiges  Fortes précipitations  Vent > 20 kt
SIGMETs :   Divers  Orages  Givrage  Turbulence  Onde Orograph.  Cendres Volcan.







- Altitude de l'aérodrome : 1766 ft


ETHL - Laupheim AB

DERNIER METAR :
  • 270120Z 26006KT 9999 -RA SCT020 BKN050 18/15 Q1013 BLU

METARs EXPIRÉS :
  • 270020Z 25009KT 9999 SCT050 BKN100 18/15 Q1013 BLU
  • 262320Z 23012KT 9999 BKN060 18/15 Q1013 BLU

TAF AMD TAF ETHL
Valide du 26 à 17h jusqu'au 27 à 02h UTC


261807Z 2617/2702 08005KT 9999 NSW FEW050 BKN250 CANCEL 1820
Pas de NOTAMs connus pour ce terrain.
1 SIGMET publié pour la FIR München (EDMM) :
 
Orages noyés dans la masse
EDMM SIGMET 2 VALID 262200/270100 EDZM
EDMM MUNCHEN FIR EMBD TS FCST SW OF LINE N4850 E00954 - N4809 E01249 TOP FL390 MOV NE NC=



MET'MAP, la Météo Aéronautique d'un coup d'oeil ! - Copyright ORBIFLY Décembre 2007 - Disclaimer

ORBIFLY MET'MAP TEAM :

Programmation & Développement : Alexandra Zaïnal
Conception & Développement : Baudouin d'Aumeries
Co-Programmation & Développement : Marc-Olivier Méhu
Soutien technique & logistique : Manuel Goepfert

Contact : metmap@orbifly.com




SOURCES & CREDITS :

   NOAA